Time;durP1;ratioP1;P1;durP2;ratioP2;P2;SDS_P1;SDS_P2;PMS_P1;PMS_P2;Temp;Humidity;BMP_temperature;BMP_pressure;BME280_temperature;BME280_humidity;BME280_pressure;Samples;Min_cycle;Max_cycle;Signal;HPM_P1;HPM_P2
2022/08/13 00:02:31;;;;;;;2.53;1.75;;;;;;;20.69;36.47;100326.53;5001800;28;20102;-75
2022/08/13 00:05:14;;;;;;;1.80;1.40;;;;;;;20.83;36.74;100358.81;5000033;28;20424;-75
2022/08/13 00:08:05;;;;;;;1.40;1.30;;;;;;;20.75;36.73;100358.53;4978440;28;20584;-74
2022/08/13 00:11:00;;;;;;;1.45;1.30;;;;;;;20.60;37.06;100339.63;5018862;28;20050;-76
2022/08/13 00:13:29;;;;;;;1.58;1.02;;;;;;;20.63;37.19;100352.84;5015489;28;20076;-75
2022/08/13 00:15:54;;;;;;;1.10;1.00;;;;;;;20.54;37.36;100346.53;4983638;28;20435;-74
2022/08/13 00:18:24;;;;;;;1.80;1.35;;;;;;;20.57;37.70;100359.75;5019180;28;20033;-73
2022/08/13 00:21:06;;;;;;;1.20;1.02;;;;;;;20.27;37.46;100315.31;5010745;28;20593;-74
2022/08/13 00:23:54;;;;;;;1.38;1.10;;;;;;;20.35;37.92;100341.41;5032978;28;20017;-73
2022/08/13 00:26:40;;;;;;;2.53;1.13;;;;;;;20.34;37.75;100348.94;5018929;28;20407;-72
2022/08/13 00:29:14;;;;;;;1.20;1.10;;;;;;;20.16;37.88;100322.38;5022222;28;20041;-73
2022/08/13 00:43:05;;;;;;;0.93;0.85;;;;;;;20.11;38.27;100344.78;4895827;29;20101;-74
2022/08/13 00:50:18;;;;;;;;;;;;;;;;;;;;;
2022/08/13 01:03:29;;;;;;;1.92;1.33;;;;;;;19.84;40.30;100335.72;4739584;30;20050;-74
2022/08/13 01:05:59;;;;;;;1.95;1.00;;;;;;;19.68;39.91;100316.81;4798246;29;20140;-73
2022/08/13 01:08:25;;;;;;;2.42;1.25;;;;;;;19.77;40.19;100330.66;4951079;28;20060;-74
2022/08/13 01:11:14;;;;;;;1.63;1.23;;;;;;;19.70;40.94;100328.38;5042271;28;20045;-75
2022/08/13 01:13:42;;;;;;;1.25;1.15;;;;;;;19.66;40.64;100319.09;5022583;28;20064;-74
2022/08/13 01:16:14;;;;;;;2.33;1.30;;;;;;;19.73;41.19;100329.69;5034105;28;20020;-76
2022/08/13 01:19:03;;;;;;;1.75;1.40;;;;;;;19.73;41.73;100335.22;5040495;28;20475;-75
2022/08/13 01:21:32;;;;;;;4.25;1.42;;;;;;;19.73;41.32;100331.63;5040200;28;20029;-75
2022/08/13 01:23:57;;;;;;;2.53;1.55;;;;;;;19.73;42.33;100334.41;5040252;28;20029;-74
2022/08/13 01:26:23;;;;;;;1.50;1.30;;;;;;;19.70;42.16;100330.34;5040682;28;20116;-73
2022/08/13 01:28:51;;;;;;;1.85;1.50;;;;;;;19.68;42.41;100336.22;5023117;28;20054;-74
2022/08/13 01:31:19;;;;;;;1.10;1.00;;;;;;;19.65;41.98;100327.75;5025514;28;20662;-74
2022/08/13 01:33:49;;;;;;;2.00;1.27;;;;;;;19.60;42.97;100320.41;5035487;28;20037;-72
2022/08/13 01:36:16;;;;;;;1.90;1.23;;;;;;;19.56;42.83;100313.88;5018521;28;20108;-74
2022/08/13 01:38:42;;;;;;;2.25;1.30;;;;;;;19.57;42.98;100318.31;5006220;28;20076;-74
2022/08/13 01:41:11;;;;;;;1.10;0.98;;;;;;;19.49;43.00;100310.81;5021297;28;20108;-73
2022/08/13 01:43:39;;;;;;;1.73;1.33;;;;;;;19.50;43.44;100315.22;5032292;28;20029;-73
2022/08/13 01:46:09;;;;;;;1.35;1.25;;;;;;;19.42;43.02;100303.00;5038015;28;20026;-74
2022/08/13 01:51:26;;;;;;;2.17;1.05;;;;;;;19.40;43.93;100291.41;5024761;28;20056;-75
2022/08/13 01:54:00;;;;;;;3.97;1.52;;;;;;;19.49;44.18;100303.31;5037425;28;20034;-74
2022/08/13 01:56:29;;;;;;;2.08;1.88;;;;;;;19.46;44.38;100297.59;5019593;28;20174;-74
2022/08/13 01:58:58;;;;;;;1.67;1.30;;;;;;;19.47;44.53;100304.78;5019542;28;20107;-74
2022/08/13 02:01:25;;;;;;;2.75;1.60;;;;;;;19.47;44.74;100304.78;5020390;28;20120;-75
2022/08/13 02:03:56;;;;;;;1.92;1.50;;;;;;;19.42;44.95;100303.00;5034322;28;20033;-74
2022/08/13 02:06:27;;;;;;;2.60;1.50;;;;;;;19.43;44.66;100301.84;5034584;28;20033;-74
2022/08/13 02:08:59;;;;;;;2.53;1.60;;;;;;;19.46;44.58;100297.59;5034713;28;20048;-72
2022/08/13 02:11:29;;;;;;;1.98;1.55;;;;;;;19.35;45.07;100297.94;5013382;28;20115;-74
2022/08/13 02:14:00;;;;;;;1.60;1.20;;;;;;;19.37;44.91;100300.38;4989847;28;20109;-73
2022/08/13 02:16:30;;;;;;;1.25;1.15;;;;;;;19.35;44.68;100292.41;5014652;28;20358;-75
2022/08/13 02:18:56;;;;;;;2.22;1.40;;;;;;;19.32;44.51;100301.38;5009017;28;20057;-75
2022/08/13 02:21:25;;;;;;;1.95;1.25;;;;;;;19.31;45.32;100291.41;5000743;28;20018;-73
2022/08/13 02:23:58;;;;;;;1.50;1.40;;;;;;;19.28;45.13;100294.84;5006831;28;20039;-75
2022/08/13 02:26:27;;;;;;;1.70;1.40;;;;;;;19.29;45.64;100293.72;5000763;28;20029;-74
2022/08/13 02:28:54;;;;;;;2.13;1.27;;;;;;;19.28;45.15;100294.03;4986749;28;20026;-73
2022/08/13 02:31:21;;;;;;;2.45;1.77;;;;;;;19.26;45.80;100286.06;4985758;28;20136;-74
2022/08/13 02:33:46;;;;;;;4.03;1.77;;;;;;;19.27;46.10;100289.63;5022859;28;20026;-75
2022/08/13 02:36:12;;;;;;;2.03;1.60;;;;;;;19.27;45.75;100289.63;5002869;28;20395;-74
2022/08/13 02:38:38;;;;;;;1.25;1.15;;;;;;;19.27;45.42;100295.19;4983456;28;20041;-74
2022/08/13 02:43:50;;;;;;;2.65;1.98;;;;;;;19.21;45.94;100289.00;5002664;28;20551;-74
2022/08/13 02:46:17;;;;;;;2.85;1.90;;;;;;;19.24;45.99;100290.31;4999747;28;20020;-73
2022/08/13 02:48:43;;;;;;;2.28;1.60;;;;;;;19.24;45.80;100293.88;5013800;28;20032;-74
2022/08/13 02:51:12;;;;;;;1.70;1.40;;;;;;;19.22;46.01;100290.63;5014710;28;20091;-72
2022/08/13 02:53:42;;;;;;;2.80;1.83;;;;;;;19.18;46.05;100281.34;4998798;28;20026;-73
2022/08/13 02:56:08;;;;;;;3.08;1.70;;;;;;;19.20;46.22;100281.81;4982540;28;20433;-73
2022/08/13 02:58:39;;;;;;;2.58;1.90;;;;;;;19.21;45.78;100285.41;5020314;28;20033;-73
2022/08/13 03:01:06;;;;;;;2.38;1.80;;;;;;;19.19;46.17;100277.44;4999696;28;20060;-74
2022/08/13 03:03:31;;;;;;;2.63;1.77;;;;;;;19.15;46.61;100279.22;5015791;28;20322;-74
2022/08/13 03:06:00;;;;;;;2.33;1.73;;;;;;;19.15;46.25;100282.00;4997450;28;20032;-74
2022/08/13 03:08:28;;;;;;;2.58;2.08;;;;;;;19.14;46.26;100280.34;5000330;28;20123;-74
2022/08/13 03:10:56;;;;;;;4.40;1.83;;;;;;;19.10;46.40;100274.66;5022879;28;20057;-72
2022/08/13 03:13:26;;;;;;;2.50;1.88;;;;;;;19.09;46.88;100278.56;5017686;28;20109;-74
2022/08/13 03:15:55;;;;;;;3.05;1.50;;;;;;;19.07;46.23;100274.50;5019186;28;20075;-75
2022/08/13 03:18:22;;;;;;;2.80;2.00;;;;;;;19.07;46.86;100274.50;5036038;28;20030;-74
2022/08/13 03:20:51;;;;;;;1.88;1.67;;;;;;;19.05;47.04;100276.78;5019305;28;20029;-74
2022/08/13 03:23:17;;;;;;;3.03;1.80;;;;;;;19.02;47.18;100269.94;5035159;28;20025;-74
2022/08/13 03:25:53;;;;;;;3.25;2.20;;;;;;;18.94;46.56;100259.66;5018488;28;20091;-75
2022/08/13 03:28:18;;;;;;;2.13;1.90;;;;;;;19.01;46.66;100271.06;5014588;28;20033;-75
2022/08/13 03:30:46;;;;;;;2.45;1.95;;;;;;;18.85;46.88;100245.78;5024124;28;20475;-76
2022/08/13 03:33:14;;;;;;;2.92;2.10;;;;;;;18.95;47.34;100262.13;5030303;28;20033;-74
2022/08/13 03:35:43;;;;;;;4.95;2.20;;;;;;;18.95;47.53;100262.13;5017903;28;20025;-73
2022/08/13 03:38:12;;;;;;;5.53;2.35;;;;;;;18.97;47.33;100265.38;5033290;28;20028;-74
2022/08/13 03:43:22;;;;;;;2.70;1.83;;;;;;;18.90;47.72;100250.41;5033634;28;20036;-75
2022/08/13 03:45:48;;;;;;;4.70;2.00;;;;;;;18.89;47.93;100262.59;5021808;28;20025;-74
2022/08/13 03:48:17;;;;;;;2.47;2.05;;;;;;;18.81;47.58;100255.91;5021212;28;20032;-75
2022/08/13 03:50:58;;;;;;;3.30;1.98;;;;;;;18.77;47.35;100249.38;5018887;28;20030;-74
2022/08/13 03:53:26;;;;;;;6.10;2.28;;;;;;;18.72;47.79;100246.75;4988494;28;20121;-73
2022/08/13 03:55:51;;;;;;;3.10;2.20;;;;;;;18.61;47.93;100235.19;5036680;28;20121;-74
2022/08/13 03:58:19;;;;;;;2.42;1.77;;;;;;;18.74;47.74;100255.56;5006293;28;20053;-75
2022/08/13 04:00:55;;;;;;;2.88;2.33;;;;;;;18.63;47.69;100250.34;5017718;28;20030;-76
2022/08/13 04:03:28;;;;;;;2.50;1.98;;;;;;;18.53;47.48;100247.91;5033022;28;20410;-76
2022/08/13 04:06:08;;;;;;;2.27;2.00;;;;;;;18.61;48.18;100262.88;5023176;28;20049;-75
2022/08/13 04:12:19;;;;;;;;;;;;;;;;;;;;;
2022/08/13 04:15:01;;;;;;;1.98;1.50;;;;;;;18.48;47.71;100270.19;5013990;28;20109;-74
2022/08/13 04:17:49;;;;;;;1.80;1.38;;;;;;;18.41;47.60;100258.78;4997502;28;20105;-75
2022/08/13 04:20:47;;;;;;;1.60;1.25;;;;;;;18.18;47.83;100231.25;5013868;28;20034;-75
2022/08/13 04:23:17;;;;;;;1.33;1.23;;;;;;;18.26;48.12;100247.03;5017470;28;20025;-75
2022/08/13 04:26:24;;;;;;;;;;;;;;;;;;;;;
2022/08/13 04:29:13;;;;;;;4.95;1.88;;;;;;;17.94;48.47;100228.88;5020845;28;20109;-74
2022/08/13 04:32:00;;;;;;;4.43;2.00;;;;;;;18.12;48.91;100251.88;4985198;28;20050;-75
2022/08/13 04:34:44;;;;;;;1.83;1.48;;;;;;;18.00;48.74;100243.38;4984366;28;20034;-74
2022/08/13 04:38:01;;;;;;;2.17;1.58;;;;;;;17.89;48.47;100231.78;4973114;28;20040;-73
2022/08/13 04:40:39;;;;;;;2.55;1.92;;;;;;;17.78;49.26;100237.59;5015180;28;20982;-75
2022/08/13 04:43:10;;;;;;;1.88;1.60;;;;;;;17.77;49.66;100235.94;4996259;28;20037;-74
2022/08/13 04:48:55;;;;;;;1.80;1.70;;;;;;;17.68;49.45;100242.56;4954743;29;20042;-74
2022/08/13 04:51:25;;;;;;;2.22;1.83;;;;;;;17.67;49.55;100240.94;4997921;28;20038;-74
2022/08/13 04:53:54;;;;;;;2.42;1.42;;;;;;;17.61;49.62;100243.84;5020054;28;20040;-74
2022/08/13 04:56:19;;;;;;;5.30;1.48;;;;;;;17.73;50.03;100264.56;5003497;28;20034;-72
2022/08/13 04:58:53;;;;;;;1.63;1.33;;;;;;;17.74;49.90;100268.94;5018935;28;20128;-74
2022/08/13 05:01:24;;;;;;;1.65;1.25;;;;;;;17.65;49.88;100248.75;4982584;28;20034;-75
2022/08/13 05:03:52;;;;;;;2.80;2.08;;;;;;;17.65;50.18;100248.75;4981605;28;20030;-75
2022/08/13 05:06:27;;;;;;;2.00;1.73;;;;;;;17.59;50.13;100240.56;4999149;28;20021;-77
2022/08/13 05:09:21;;;;;;;3.28;2.10;;;;;;;17.75;50.31;100260.31;5023392;28;20034;-75
2022/08/13 05:11:48;;;;;;;2.67;2.17;;;;;;;17.66;50.92;100239.31;5031206;28;20038;-73
2022/08/13 05:14:17;;;;;;;1.80;1.70;;;;;;;17.74;50.53;100252.34;5005207;28;20025;-75
2022/08/13 05:16:43;;;;;;;1.60;1.50;;;;;;;17.60;50.69;100231.16;5026592;28;20025;-75
2022/08/13 05:19:08;;;;;;;4.53;1.80;;;;;;;17.80;50.49;100267.69;5024037;28;20397;-72
2022/08/13 05:21:36;;;;;;;2.95;1.63;;;;;;;17.83;50.93;100255.16;5028722;28;20026;-75
2022/08/13 05:24:02;;;;;;;4.40;2.42;;;;;;;17.76;50.58;100242.59;5017628;28;20025;-74
2022/08/13 05:26:34;;;;;;;4.00;2.05;;;;;;;17.76;51.38;100231.53;5036547;28;20211;-73
2022/08/13 05:29:05;;;;;;;3.33;2.35;;;;;;;17.89;50.99;100243.63;5004751;28;20037;-76
2022/08/13 05:31:37;;;;;;;2.50;2.00;;;;;;;17.92;51.34;100245.00;5038864;28;20112;-74
2022/08/13 05:34:03;;;;;;;2.10;1.60;;;;;;;17.92;51.37;100237.50;5041401;28;20056;-75
2022/08/13 05:36:33;;;;;;;2.75;1.77;;;;;;;17.92;50.65;100231.16;5016031;28;20050;-74
2022/08/13 05:39:11;;;;;;;1.90;1.75;;;;;;;17.99;50.92;100242.56;4997193;28;20061;-75
2022/08/13 05:41:36;;;;;;;2.17;1.48;;;;;;;18.15;50.90;100262.31;5019727;28;20113;-75
2022/08/13 05:44:02;;;;;;;1.63;1.40;;;;;;;18.13;50.37;100256.28;5034978;28;20037;-75
2022/08/13 05:46:30;;;;;;;1.60;1.23;;;;;;;18.18;50.35;100255.31;5040731;28;20091;-76
2022/08/13 05:48:58;;;;;;;1.25;1.15;;;;;;;18.24;50.45;100254.03;5023784;28;20017;-76
2022/08/13 05:51:35;;;;;;;2.75;1.20;;;;;;;18.28;50.48;100250.31;5015214;28;20701;-76
2022/08/13 05:54:11;;;;;;;;;;;;;;;;;;;;;
2022/08/13 05:56:41;;;;;;;1.90;1.40;;;;;;;18.50;49.91;100262.41;5036916;28;20462;-74
2022/08/13 06:03:22;;;;;;;1.95;1.63;;;;;;;18.47;50.08;100243.63;5018699;28;20044;-74
2022/08/13 06:04:42;;;;;;;3.35;1.48;;;;;;;18.69;50.10;100255.72;5040318;28;20031;-75
2022/08/13 06:07:09;;;;;;;3.67;1.80;;;;;;;18.67;50.31;100240.25;5045283;28;20734;-75
2022/08/13 06:09:36;;;;;;;2.58;1.80;;;;;;;18.84;50.02;100256.06;5041566;28;20048;-75
2022/08/13 06:12:03;;;;;;;5.00;1.70;;;;;;;18.95;50.03;100262.13;5013983;28;20052;-74
2022/08/13 06:14:31;;;;;;;2.58;1.92;;;;;;;18.94;49.89;100246.63;5021713;28;20025;-76
2022/08/13 06:17:02;;;;;;;5.25;2.05;;;;;;;19.10;50.12;100257.19;5018512;28;20054;-76
2022/08/13 06:19:30;;;;;;;3.05;2.20;;;;;;;19.08;49.85;100245.63;5001597;28;20102;-74
2022/08/13 06:22:11;;;;;;;;;;;;;;;;;;;;;
2022/08/13 06:24:37;;;;;;;2.03;1.80;;;;;;;19.34;49.76;100263.03;5018033;28;20443;-73
2022/08/13 06:27:11;;;;;;;3.20;2.05;;;;;;;19.32;49.79;100243.16;4982207;28;20032;-73
2022/08/13 06:29:40;;;;;;;4.97;1.77;;;;;;;19.55;49.56;100265.09;4996801;28;20357;-73
2022/08/13 06:32:06;;;;;;;3.55;2.00;;;;;;;19.66;49.19;100255.28;4998765;28;20041;-72
2022/08/13 06:34:38;;;;;;;2.38;1.67;;;;;;;19.78;48.90;100262.09;4998888;28;20029;-75
2022/08/13 06:37:04;;;;;;;7.78;1.88;;;;;;;19.91;49.17;100258.31;5018678;28;20038;-74
2022/08/13 06:39:32;;;;;;;2.30;2.10;;;;;;;19.95;49.27;100250.97;5018610;28;20392;-74
2022/08/13 06:42:02;;;;;;;2.22;1.65;;;;;;;20.08;49.16;100251.06;5015122;28;20022;-75
2022/08/13 06:44:30;;;;;;;2.20;1.67;;;;;;;20.17;48.59;100249.06;4995045;28;20045;-73
2022/08/13 06:47:03;;;;;;;4.05;2.00;;;;;;;20.30;49.05;100242.44;5011969;28;20057;-73
2022/08/13 06:49:32;;;;;;;3.33;2.33;;;;;;;20.36;48.93;100241.09;4999276;28;20398;-74
2022/08/13 06:51:58;;;;;;;6.53;2.13;;;;;;;20.43;49.04;100239.75;5013899;28;20033;-74
2022/08/13 06:54:24;;;;;;;5.60;1.80;;;;;;;20.58;48.32;100236.38;4998153;28;20031;-73
2022/08/13 06:56:52;;;;;;;2.33;1.75;;;;;;;20.70;48.16;100228.13;5014386;28;20633;-75
2022/08/13 06:59:20;;;;;;;4.40;2.00;;;;;;;20.85;48.32;100240.59;5018310;28;20025;-76
2022/08/13 07:01:51;;;;;;;5.30;2.28;;;;;;;20.92;48.12;100228.94;5016818;28;20029;-73
2022/08/13 07:04:19;;;;;;;4.63;2.35;;;;;;;21.04;48.05;100242.88;4998156;28;20037;-74
2022/08/13 07:06:47;;;;;;;2.33;1.70;;;;;;;21.09;47.96;100233.53;4996722;28;20022;-72
2022/08/13 07:09:14;;;;;;;3.90;2.20;;;;;;;21.18;47.86;100233.44;4985559;28;20062;-74
2022/08/13 07:11:44;;;;;;;3.70;2.13;;;;;;;21.24;47.82;100237.63;5001613;28;20101;-73
2022/08/13 07:14:10;;;;;;;5.07;2.17;;;;;;;21.24;48.32;100230.06;5029296;28;20028;-74
2022/08/13 07:16:36;;;;;;;4.15;2.00;;;;;;;21.28;47.93;100235.78;5005467;28;20405;-75
2022/08/13 07:19:03;;;;;;;1.95;1.70;;;;;;;21.40;47.82;100244.16;5016585;28;20029;-73
2022/08/13 07:21:32;;;;;;;4.13;2.15;;;;;;;21.45;48.09;100246.72;5013434;28;20037;-73
2022/08/13 07:24:02;;;;;;;2.80;2.03;;;;;;;21.52;48.18;100237.03;5026442;28;20503;-76
2022/08/13 07:26:33;;;;;;;5.38;1.85;;;;;;;21.63;47.93;100246.56;5018048;28;20026;-74
2022/08/13 07:29:00;;;;;;;3.58;1.88;;;;;;;21.75;47.86;100243.78;5015257;28;20345;-73
2022/08/13 07:31:31;;;;;;;6.60;2.10;;;;;;;21.79;47.68;100230.00;5012720;28;20045;-73
2022/08/13 07:34:04;;;;;;;4.53;2.30;;;;;;;22.02;47.83;100244.28;5013115;28;20057;-73
2022/08/13 07:36:36;;;;;;;2.38;1.67;;;;;;;22.04;47.29;100225.25;5015241;28;20033;-74
2022/08/13 07:39:16;;;;;;;;;;;;;;;;;;;;;
2022/08/13 07:41:46;;;;;;;5.78;1.98;;;;;;;22.42;47.14;100231.63;5014987;28;20081;-75
2022/08/13 07:44:20;;;;;;;4.63;2.08;;;;;;;22.64;47.03;100249.78;5014784;28;20025;-72
2022/08/13 07:46:46;;;;;;;4.72;2.33;;;;;;;22.76;47.25;100235.00;5028068;28;20037;-73
2022/08/13 07:49:12;;;;;;;5.13;1.98;;;;;;;22.88;47.24;100242.50;5012531;28;20159;-73
2022/08/13 07:51:41;;;;;;;2.28;1.70;;;;;;;23.04;47.07;100246.16;5022861;28;20025;-73
2022/08/13 07:54:07;;;;;;;3.28;1.88;;;;;;;23.18;47.00;100241.00;5013567;28;20022;-70
2022/08/13 07:56:33;;;;;;;2.33;1.98;;;;;;;23.35;47.12;100251.03;5010256;28;20044;-71
2022/08/13 07:59:08;;;;;;;2.28;1.75;;;;;;;23.50;46.77;100238.28;5014112;28;20032;-72
2022/08/13 08:01:48;;;;;;;4.45;2.15;;;;;;;23.70;46.36;100243.97;5019357;28;20041;-71
2022/08/13 08:04:16;;;;;;;3.35;1.95;;;;;;;23.89;46.22;100251.66;5017933;28;20102;-71
2022/08/13 08:06:47;;;;;;;6.80;2.38;;;;;;;24.04;45.33;100250.03;5017409;28;20017;-72
2022/08/13 08:09:21;;;;;;;3.42;1.50;;;;;;;24.22;45.38;100247.66;5019312;28;20026;-71
2022/08/13 08:14:32;;;;;;;2.97;1.75;;;;;;;24.66;45.27;100243.84;5009840;28;20049;-72
2022/08/13 08:17:01;;;;;;;3.00;1.55;;;;;;;24.82;45.38;100241.00;5022188;28;20022;-71
2022/08/13 08:19:27;;;;;;;5.10;1.73;;;;;;;25.01;44.70;100242.97;5024743;28;20028;-73
2022/08/13 08:21:58;;;;;;;4.40;1.85;;;;;;;25.18;44.52;100247.31;5020090;28;20045;-74
2022/08/13 08:24:28;;;;;;;3.58;1.50;;;;;;;25.38;44.20;100239.75;5022604;28;20041;-74
2022/08/13 08:26:55;;;;;;;4.95;1.50;;;;;;;25.52;43.85;100239.97;5026614;28;20018;-74
2022/08/13 08:29:24;;;;;;;9.38;2.22;;;;;;;25.65;43.73;100234.22;5025504;28;20040;-74
2022/08/13 08:31:50;;;;;;;2.15;1.70;;;;;;;25.83;43.73;100240.94;5020754;28;20076;-74
2022/08/13 08:34:18;;;;;;;7.65;1.70;;;;;;;26.05;42.92;100244.09;5017587;28;20120;-76
2022/08/13 08:36:46;;;;;;;3.05;1.80;;;;;;;26.24;42.67;100246.81;4979915;28;20108;-73
2022/08/13 08:44:48;;;;;;;3.05;1.90;;;;;;;26.77;41.71;100245.16;5025089;28;20040;-72
2022/08/13 08:47:13;;;;;;;3.45;1.35;;;;;;;26.91;41.59;100245.34;4993019;28;20056;-75
2022/08/13 08:49:40;;;;;;;3.03;1.60;;;;;;;27.10;41.01;100252.78;4989878;28;20634;-71
2022/08/13 08:52:08;;;;;;;3.88;1.70;;;;;;;27.20;40.59;100245.66;5008632;28;20041;-73
2022/08/13 08:54:34;;;;;;;2.50;1.70;;;;;;;27.38;40.19;100245.06;4998609;28;20116;-72
2022/08/13 08:57:01;;;;;;;1.80;1.58;;;;;;;27.53;39.38;100249.63;4998614;28;20029;-74
2022/08/13 08:59:29;;;;;;;2.78;1.65;;;;;;;27.80;39.16;100255.09;5007575;28;20056;-74
2022/08/13 09:01:56;;;;;;;5.40;2.08;;;;;;;27.97;38.28;100260.09;5005191;28;20396;-72
2022/08/13 09:04:28;;;;;;;4.18;1.65;;;;;;;28.16;38.54;100255.41;5004659;28;20117;-75
2022/08/13 09:06:56;;;;;;;3.42;1.65;;;;;;;28.38;37.58;100250.72;5005796;28;20026;-73
2022/08/13 09:09:22;;;;;;;2.92;1.50;;;;;;;28.62;37.11;100257.75;5020982;28;20034;-78
2022/08/13 09:11:49;;;;;;;1.60;1.25;;;;;;;28.85;37.19;100253.81;5013090;28;20150;-76
2022/08/13 09:14:15;;;;;;;2.53;1.50;;;;;;;29.08;36.47;100254.28;5016009;28;20060;-75
2022/08/13 09:16:41;;;;;;;1.42;1.25;;;;;;;29.29;36.69;100263.25;4999037;28;20029;-73
2022/08/13 09:19:13;;;;;;;2.25;1.42;;;;;;;29.53;35.99;100258.88;4998177;28;20391;-74
2022/08/13 09:21:49;;;;;;;3.00;1.50;;;;;;;29.66;35.48;100265.72;5015969;28;20046;-74
2022/08/13 09:24:21;;;;;;;2.60;1.65;;;;;;;29.83;34.59;100261.31;5017712;28;20072;-73
2022/08/13 09:26:51;;;;;;;2.87;1.73;;;;;;;30.41;33.81;100259.28;5018058;28;20022;-74
2022/08/13 09:29:20;;;;;;;2.33;1.50;;;;;;;32.71;30.34;100268.31;5013456;28;20034;-73
2022/08/13 09:31:50;;;;;;;3.03;1.60;;;;;;;35.61;26.25;100260.00;5014067;28;20018;-73
2022/08/13 09:34:17;;;;;;;3.15;1.40;;;;;;;38.55;22.34;100271.66;5019406;28;20037;-71
2022/08/13 09:36:46;;;;;;;2.53;1.35;;;;;;;41.37;19.37;100266.41;4984992;28;20036;-73
2022/08/13 09:39:52;;;;;;;1.88;1.40;;;;;;;43.40;16.88;100268.88;5003318;28;20120;-73
2022/08/13 09:42:33;;;;;;;3.30;1.25;;;;;;;45.72;15.69;100273.53;4985462;28;20080;-73
2022/08/13 09:45:00;;;;;;;1.65;1.20;;;;;;;47.38;13.76;100266.34;5008340;28;20044;-74
2022/08/13 09:47:26;;;;;;;2.17;1.30;;;;;;;48.57;13.35;100271.72;5022870;28;20518;-74
2022/08/13 09:49:52;;;;;;;5.00;1.33;;;;;;;49.88;12.56;100256.00;5017724;28;20036;-75
2022/08/13 09:52:20;;;;;;;1.15;1.00;;;;;;;51.09;11.43;100251.63;5002624;28;20033;-73
2022/08/13 09:54:50;;;;;;;1.95;1.00;;;;;;;52.22;10.56;100251.50;5014528;28;20129;-74
2022/08/13 09:57:20;;;;;;;3.10;1.40;;;;;;;53.15;9.40;100259.09;5013601;28;20022;-74
2022/08/13 09:59:49;;;;;;;1.08;0.73;;;;;;;54.10;9.04;100243.13;5021665;28;20231;-74
2022/08/13 10:02:14;;;;;;;1.38;1.02;;;;;;;55.25;8.38;100242.50;5015715;28;20038;-74
2022/08/13 10:04:42;;;;;;;3.08;1.38;;;;;;;55.89;7.23;100242.53;5000141;28;20040;-74
2022/08/13 10:07:09;;;;;;;1.33;1.00;;;;;;;56.07;7.18;100228.78;5015803;28;20037;-74
2022/08/13 10:09:36;;;;;;;2.38;1.00;;;;;;;56.52;6.66;100226.19;4996470;28;20034;-73
2022/08/13 10:12:05;;;;;;;1.20;0.75;;;;;;;57.49;6.48;100231.59;5008083;28;20053;-76
2022/08/13 10:14:32;;;;;;;2.00;1.13;;;;;;;58.05;5.89;100234.03;5033960;28;20042;-75
2022/08/13 10:16:58;;;;;;;6.60;0.98;;;;;;;57.85;6.04;100222.16;5018331;28;20031;-73
2022/08/13 10:19:24;;;;;;;2.92;1.38;;;;;;;57.93;5.56;100227.94;5017663;28;20025;-74
2022/08/13 10:21:50;;;;;;;3.15;1.17;;;;;;;57.75;5.53;100218.34;5031651;28;20029;-74
2022/08/13 10:24:15;;;;;;;1.05;0.70;;;;;;;58.43;5.71;100223.09;5012596;28;20033;-74
2022/08/13 10:26:41;;;;;;;1.85;1.15;;;;;;;58.69;5.37;100224.47;5019906;28;20065;-75
2022/08/13 10:29:10;;;;;;;1.20;0.85;;;;;;;58.86;4.98;100220.69;5019322;28;20074;-74
2022/08/13 10:31:37;;;;;;;5.88;0.85;;;;;;;59.65;4.79;100216.44;5034095;28;20037;-74
2022/08/13 10:34:04;;;;;;;1.63;0.68;;;;;;;60.01;4.62;100223.53;5033612;28;20055;-73
2022/08/13 10:36:31;;;;;;;1.23;0.77;;;;;;;60.06;4.44;100207.69;5019637;28;20098;-74
2022/08/13 10:38:57;;;;;;;4.00;0.80;;;;;;;60.50;4.21;100201.94;5022751;28;20099;-74
2022/08/13 10:41:24;;;;;;;1.40;0.80;;;;;;;60.16;4.22;100192.13;5020557;28;20025;-75
2022/08/13 10:43:50;;;;;;;2.63;1.23;;;;;;;60.35;4.13;100197.97;5017019;28;20250;-75
2022/08/13 10:46:17;;;;;;;1.52;0.98;;;;;;;60.66;3.83;100191.31;5036219;28;20025;-74
2022/08/13 10:48:55;;;;;;;0.80;0.80;;;;;;;60.75;3.56;100186.75;5018559;28;20642;-75
2022/08/13 10:51:21;;;;;;;1.10;0.70;;;;;;;60.81;3.61;100184.19;5029979;28;20479;-75
2022/08/13 10:53:55;;;;;;;1.50;0.73;;;;;;;60.84;3.34;100182.97;5015911;28;20044;-75
2022/08/13 10:56:21;;;;;;;1.13;0.90;;;;;;;60.58;3.17;100179.69;5015322;28;20093;-74
2022/08/13 10:58:48;;;;;;;3.70;0.85;;;;;;;60.91;3.21;100179.03;5017697;28;20120;-73
2022/08/13 11:01:15;;;;;;;0.82;0.68;;;;;;;61.26;2.93;100175.50;5031852;28;20026;-74
2022/08/13 11:03:44;;;;;;;1.98;1.08;;;;;;;60.59;2.79;100175.34;5009486;28;20026;-74
2022/08/13 11:06:13;;;;;;;2.78;0.95;;;;;;;60.79;2.46;100174.44;5016808;28;20082;-76
2022/08/13 11:08:39;;;;;;;1.15;0.80;;;;;;;60.68;2.31;100164.09;5013476;28;20045;-73
2022/08/13 11:11:06;;;;;;;1.10;0.70;;;;;;;61.23;2.47;100173.06;5015511;28;20054;-75
2022/08/13 11:13:32;;;;;;;2.63;0.98;;;;;;;61.38;2.15;100157.81;5010955;28;20040;-75
2022/08/13 11:15:58;;;;;;;0.95;0.80;;;;;;;61.95;2.35;100157.88;4977294;28;20034;-74
2022/08/13 11:18:26;;;;;;;1.67;0.70;;;;;;;62.61;1.99;100159.09;5012754;28;21422;-73
2022/08/13 11:21:22;;;;;;;;;;;;;;;;;;;;;
2022/08/13 11:23:53;;;;;;;2.30;0.90;;;;;;;62.98;1.40;100142.78;5009853;28;20028;-74
2022/08/13 11:26:21;;;;;;;1.40;0.80;;;;;;;62.89;1.64;100146.66;5015587;28;20037;-78
2022/08/13 11:28:49;;;;;;;1.45;0.60;;;;;;;62.95;1.32;100144.84;5011130;28;20021;-73
2022/08/13 11:31:15;;;;;;;1.58;0.70;;;;;;;62.56;1.26;100145.44;4977635;28;20040;-74
2022/08/13 11:33:43;;;;;;;4.82;0.93;;;;;;;62.47;1.08;100143.38;5008037;28;20026;-77
2022/08/13 11:36:09;;;;;;;0.90;0.70;;;;;;;61.90;1.59;100137.53;4989957;28;20113;-75
2022/08/13 11:38:47;;;;;;;0.77;0.70;;;;;;;62.45;1.21;100123.28;5012212;28;20026;-73
2022/08/13 11:41:18;;;;;;;0.70;0.70;;;;;;;63.06;1.13;100131.38;4991444;28;20045;-76
2022/08/13 11:43:44;;;;;;;1.10;0.75;;;;;;;63.14;0.79;100123.00;5017752;28;20017;-73
2022/08/13 11:46:13;;;;;;;1.08;0.68;;;;;;;63.67;0.85;100133.41;4981346;28;20060;-73
2022/08/13 11:48:39;;;;;;;5.93;0.80;;;;;;;64.66;0.75;100121.78;4983565;28;20038;-73
2022/08/13 11:51:05;;;;;;;1.42;1.02;;;;;;;64.46;0.76;100127.38;4999477;28;20037;-75
2022/08/13 11:53:30;;;;;;;0.82;0.80;;;;;;;64.55;0.97;100121.91;5001334;28;20053;-76
2022/08/13 11:55:57;;;;;;;0.70;0.68;;;;;;;64.73;0.64;100108.00;4998532;28;20038;-74
2022/08/13 11:58:27;;;;;;;1.10;0.75;;;;;;;65.04;0.84;100112.53;4984348;28;20040;-74
2022/08/13 12:00:55;;;;;;;0.77;0.70;;;;;;;65.42;0.39;100118.91;4998082;28;20038;-73
2022/08/13 12:03:23;;;;;;;1.10;0.73;;;;;;;66.30;0.51;100103.66;4997224;28;20046;-74
2022/08/13 12:05:49;;;;;;;0.80;0.77;;;;;;;67.15;0.00;100123.72;5015272;28;20033;-74
2022/08/13 12:08:17;;;;;;;4.93;1.00;;;;;;;66.51;0.00;100106.13;5010321;28;20131;-74
2022/08/13 12:10:44;;;;;;;2.42;0.90;;;;;;;66.04;0.39;100095.03;5014593;28;20192;-74
2022/08/13 12:13:10;;;;;;;5.35;1.00;;;;;;;64.79;0.31;100093.47;5032679;28;20140;-75
2022/08/13 12:15:36;;;;;;;1.77;0.95;;;;;;;64.35;0.61;100093.44;5033757;28;20471;-74
2022/08/13 12:18:01;;;;;;;0.90;0.77;;;;;;;64.98;0.69;100086.25;4999404;28;20099;-75
2022/08/13 12:20:27;;;;;;;1.92;1.00;;;;;;;64.99;0.40;100081.88;5018642;28;20458;-74
2022/08/13 12:22:55;;;;;;;6.20;0.98;;;;;;;64.97;0.38;100078.78;5016047;28;20036;-74
2022/08/13 12:25:22;;;;;;;1.35;0.80;;;;;;;65.51;0.31;100081.41;5029524;28;20040;-75
2022/08/13 12:28:04;;;;;;;1.10;0.85;;;;;;;66.28;0.09;100079.75;5016127;28;20026;-76
2022/08/13 12:30:30;;;;;;;1.55;0.90;;;;;;;66.64;0.00;100073.88;5029481;28;20101;-78
2022/08/13 12:32:55;;;;;;;1.63;0.98;;;;;;;66.62;0.00;100080.50;5031283;28;20069;-74
2022/08/13 12:35:21;;;;;;;1.20;0.77;;;;;;;66.19;0.00;100070.47;5019485;28;20033;-74
2022/08/13 12:37:46;;;;;;;1.10;0.88;;;;;;;66.49;0.00;100073.25;5013796;28;20029;-73
2022/08/13 12:40:26;;;;;;;1.42;0.75;;;;;;;66.68;0.00;100059.91;5029982;28;20026;-75
2022/08/13 12:42:54;;;;;;;0.88;0.73;;;;;;;66.97;0.00;100064.13;5009833;28;20034;-75
2022/08/13 12:45:22;;;;;;;1.77;0.85;;;;;;;66.63;0.04;100057.44;4990692;28;20057;-77